CheckWX is a tool to help pilots better visualize weather data.  It is not intended as a substitute for an official pre-flight weather briefing.

19:25:30 UTC

KLAL METAR
Lakeland Linder Regional Airport
Lakeland, Florida, USA
Current

38 mins ago

KLAL 221848Z 00000KT 10SM SCT050 29/17 A3014
Observed
Feb-22 @ 18:48 UTC
Visibility
10 SM
Flight Rules
VFR
Cloud Levels
  • Scattered at 5,000' AGL
Temperature
29°C / 84°F
Dewpoint
17°C / 63°F
Humidity
48%
Altimeter
30.14" Hg
Pressure
1020.62 hPa
Previous

2 hours ago

KLAL 221748Z 18007KT 10SM BKN039 28/18 A3017
Observed
Feb-22 @ 17:48 UTC
Wind
  • 180° at 7 KTS
Visibility
10 SM
Flight Rules
VFR
Cloud Levels
  • Broken at 3,900' AGL
Temperature
28°C / 82°F
Dewpoint
18°C / 64°F
Humidity
55%
Altimeter
30.17" Hg
Pressure
1021.72 hPa
Previous

3 hours ago

KLAL 221646Z 16008KT 10SM BKN030 27/19 A3019
Observed
Feb-22 @ 16:46 UTC
Wind
  • 160° at 8 KTS
Visibility
10 SM
Flight Rules
MVFR
Cloud Levels
  • Broken at 3,000' AGL
Temperature
27°C / 81°F
Dewpoint
19°C / 66°F
Humidity
62%
Altimeter
30.19" Hg
Pressure
1022.32 hPa